sensor_id;sensor_type;location;lat;lon;timestamp;temperature;humidity
67777;DHT22;54576;52.020;5.536;2023-06-22T00:00:53;17.90;87.30
67777;DHT22;54576;52.020;5.536;2023-06-22T00:03:19;17.90;87.70
67777;DHT22;54576;52.020;5.536;2023-06-22T00:05:46;17.80;88.10
67777;DHT22;54576;52.020;5.536;2023-06-22T00:08:12;17.80;88.70
67777;DHT22;54576;52.020;5.536;2023-06-22T00:10:38;17.80;88.90
67777;DHT22;54576;52.020;5.536;2023-06-22T00:13:04;17.70;88.70
67777;DHT22;54576;52.020;5.536;2023-06-22T00:15:30;17.70;88.80
67777;DHT22;54576;52.020;5.536;2023-06-22T00:17:56;17.70;88.80
67777;DHT22;54576;52.020;5.536;2023-06-22T00:20:23;17.70;89.30
67777;DHT22;54576;52.020;5.536;2023-06-22T00:22:48;17.70;89.30
67777;DHT22;54576;52.020;5.536;2023-06-22T00:25:15;17.60;89.00
67777;DHT22;54576;52.020;5.536;2023-06-22T00:27:41;17.60;89.80
67777;DHT22;54576;52.020;5.536;2023-06-22T00:30:07;17.50;90.10
67777;DHT22;54576;52.020;5.536;2023-06-22T00:32:32;17.40;90.20
67777;DHT22;54576;52.020;5.536;2023-06-22T00:34:58;17.40;90.40
67777;DHT22;54576;52.020;5.536;2023-06-22T00:37:23;17.30;90.60
67777;DHT22;54576;52.020;5.536;2023-06-22T00:39:51;17.30;90.80
67777;DHT22;54576;52.020;5.536;2023-06-22T00:42:17;17.20;91.00
67777;DHT22;54576;52.020;5.536;2023-06-22T00:44:43;17.20;91.20
67777;DHT22;54576;52.020;5.536;2023-06-22T00:47:10;17.20;91.30
67777;DHT22;54576;52.020;5.536;2023-06-22T00:49:38;17.10;91.40
67777;DHT22;54576;52.020;5.536;2023-06-22T00:52:05;17.00;91.50
67777;DHT22;54576;52.020;5.536;2023-06-22T00:54:35;17.00;91.60
67777;DHT22;54576;52.020;5.536;2023-06-22T00:57:01;17.00;91.60
67777;DHT22;54576;52.020;5.536;2023-06-22T00:59:27;17.00;91.60
67777;DHT22;54576;52.020;5.536;2023-06-22T01:01:53;17.00;91.70
67777;DHT22;54576;52.020;5.536;2023-06-22T01:04:18;16.90;91.90
67777;DHT22;54576;52.020;5.536;2023-06-22T01:07:23;16.90;92.10
67777;DHT22;54576;52.020;5.536;2023-06-22T01:10:10;16.90;93.20
67777;DHT22;54576;52.020;5.536;2023-06-22T01:12:44;16.90;92.50
67777;DHT22;54576;52.020;5.536;2023-06-22T01:17:59;16.80;92.70
67777;DHT22;54576;52.020;5.536;2023-06-22T01:20:28;16.80;92.00
67777;DHT22;54576;52.020;5.536;2023-06-22T01:23:27;16.70;92.20
67777;DHT22;54576;52.020;5.536;2023-06-22T01:26:26;16.60;95.60
67777;DHT22;54576;52.020;5.536;2023-06-22T01:28:55;16.60;95.60
67777;DHT22;54576;52.020;5.536;2023-06-22T01:31:25;16.50;93.30
67777;DHT22;54576;52.020;5.536;2023-06-22T01:33:58;16.50;93.20
67777;DHT22;54576;52.020;5.536;2023-06-22T01:36:26;16.50;93.70
67777;DHT22;54576;52.020;5.536;2023-06-22T01:38:53;16.50;93.40
67777;DHT22;54576;52.020;5.536;2023-06-22T01:41:24;16.40;99.90
67777;DHT22;54576;52.020;5.536;2023-06-22T01:43:50;16.40;92.80
67777;DHT22;54576;52.020;5.536;2023-06-22T01:46:18;16.30;93.10
67777;DHT22;54576;52.020;5.536;2023-06-22T01:48:45;16.30;94.10
67777;DHT22;54576;52.020;5.536;2023-06-22T01:51:11;16.30;93.90
67777;DHT22;54576;52.020;5.536;2023-06-22T01:53:37;16.20;94.10
67777;DHT22;54576;52.020;5.536;2023-06-22T01:56:03;16.20;94.40
67777;DHT22;54576;52.020;5.536;2023-06-22T01:58:30;16.20;94.40
67777;DHT22;54576;52.020;5.536;2023-06-22T02:01:10;16.20;94.50
67777;DHT22;54576;52.020;5.536;2023-06-22T02:03:57;16.10;95.90
67777;DHT22;54576;52.020;5.536;2023-06-22T02:06:31;16.10;94.90
67777;DHT22;54576;52.020;5.536;2023-06-22T02:09:02;16.10;95.00
67777;DHT22;54576;52.020;5.536;2023-06-22T02:11:31;16.10;94.80
67777;DHT22;54576;52.020;5.536;2023-06-22T02:13:59;16.10;95.00
67777;DHT22;54576;52.020;5.536;2023-06-22T02:16:26;16.10;94.90
67777;DHT22;54576;52.020;5.536;2023-06-22T02:18:55;16.10;95.10
67777;DHT22;54576;52.020;5.536;2023-06-22T02:21:23;16.10;94.90
67777;DHT22;54576;52.020;5.536;2023-06-22T02:23:49;16.10;94.60
67777;DHT22;54576;52.020;5.536;2023-06-22T02:26:17;16.00;94.90
67777;DHT22;54576;52.020;5.536;2023-06-22T02:28:42;16.00;95.20
67777;DHT22;54576;52.020;5.536;2023-06-22T02:31:08;15.90;95.30
67777;DHT22;54576;52.020;5.536;2023-06-22T02:33:33;15.90;95.30
67777;DHT22;54576;52.020;5.536;2023-06-22T02:35:59;15.80;95.50
67777;DHT22;54576;52.020;5.536;2023-06-22T02:38:25;15.80;95.60
67777;DHT22;54576;52.020;5.536;2023-06-22T02:40:51;15.70;96.10
67777;DHT22;54576;52.020;5.536;2023-06-22T02:43:17;15.70;96.20
67777;DHT22;54576;52.020;5.536;2023-06-22T02:45:45;15.70;96.20
67777;DHT22;54576;52.020;5.536;2023-06-22T02:48:11;15.70;96.20
67777;DHT22;54576;52.020;5.536;2023-06-22T02:50:36;15.70;95.80
67777;DHT22;54576;52.020;5.536;2023-06-22T02:53:02;15.70;96.10
67777;DHT22;54576;52.020;5.536;2023-06-22T02:55:28;15.70;96.10
67777;DHT22;54576;52.020;5.536;2023-06-22T02:57:53;15.70;96.00
67777;DHT22;54576;52.020;5.536;2023-06-22T03:00:19;15.70;95.90
67777;DHT22;54576;52.020;5.536;2023-06-22T03:02:46;15.60;96.10
67777;DHT22;54576;52.020;5.536;2023-06-22T03:05:12;15.60;96.40
67777;DHT22;54576;52.020;5.536;2023-06-22T03:07:44;15.70;96.30
67777;DHT22;54576;52.020;5.536;2023-06-22T03:10:10;15.60;96.20
67777;DHT22;54576;52.020;5.536;2023-06-22T03:12:39;15.60;96.40
67777;DHT22;54576;52.020;5.536;2023-06-22T03:15:09;15.50;96.80
67777;DHT22;54576;52.020;5.536;2023-06-22T03:17:35;15.50;99.90
67777;DHT22;54576;52.020;5.536;2023-06-22T03:20:02;15.50;95.50
67777;DHT22;54576;52.020;5.536;2023-06-22T03:22:38;15.50;96.10
67777;DHT22;54576;52.020;5.536;2023-06-22T03:25:04;15.40;96.20
67777;DHT22;54576;52.020;5.536;2023-06-22T03:27:29;15.40;96.40
67777;DHT22;54576;52.020;5.536;2023-06-22T03:29:57;15.40;96.60
67777;DHT22;54576;52.020;5.536;2023-06-22T03:32:23;15.40;96.70
67777;DHT22;54576;52.020;5.536;2023-06-22T03:34:48;15.40;97.40
67777;DHT22;54576;52.020;5.536;2023-06-22T03:37:15;15.30;96.90
67777;DHT22;54576;52.020;5.536;2023-06-22T03:39:41;15.40;97.40
67777;DHT22;54576;52.020;5.536;2023-06-22T03:42:07;15.30;97.40
67777;DHT22;54576;52.020;5.536;2023-06-22T03:44:33;15.30;97.50
67777;DHT22;54576;52.020;5.536;2023-06-22T03:46:58;15.30;97.60
67777;DHT22;54576;52.020;5.536;2023-06-22T03:49:24;15.30;97.60
67777;DHT22;54576;52.020;5.536;2023-06-22T03:51:49;15.30;97.30
67777;DHT22;54576;52.020;5.536;2023-06-22T03:54:15;15.30;97.20
67777;DHT22;54576;52.020;5.536;2023-06-22T03:56:40;15.30;97.30
67777;DHT22;54576;52.020;5.536;2023-06-22T03:59:06;15.20;97.30
67777;DHT22;54576;52.020;5.536;2023-06-22T04:01:32;15.30;97.40
67777;DHT22;54576;52.020;5.536;2023-06-22T04:03:57;15.20;97.70
67777;DHT22;54576;52.020;5.536;2023-06-22T04:06:23;15.20;97.60
67777;DHT22;54576;52.020;5.536;2023-06-22T04:08:48;15.20;97.70
67777;DHT22;54576;52.020;5.536;2023-06-22T04:11:17;15.20;97.70
67777;DHT22;54576;52.020;5.536;2023-06-22T04:13:43;15.20;97.80
67777;DHT22;54576;52.020;5.536;2023-06-22T04:16:09;15.30;97.90
67777;DHT22;54576;52.020;5.536;2023-06-22T04:18:34;15.40;97.60
67777;DHT22;54576;52.020;5.536;2023-06-22T04:21:00;15.40;97.40
67777;DHT22;54576;52.020;5.536;2023-06-22T04:23:25;15.60;99.90
67777;DHT22;54576;52.020;5.536;2023-06-22T04:28:17;15.50;97.60
67777;DHT22;54576;52.020;5.536;2023-06-22T04:30:42;15.60;97.60
67777;DHT22;54576;52.020;5.536;2023-06-22T04:33:15;15.70;97.50
67777;DHT22;54576;52.020;5.536;2023-06-22T04:35:41;15.90;97.60
67777;DHT22;54576;52.020;5.536;2023-06-22T04:38:07;16.40;95.40
67777;DHT22;54576;52.020;5.536;2023-06-22T04:40:33;17.10;93.00
67777;DHT22;54576;52.020;5.536;2023-06-22T04:42:58;17.80;94.50
67777;DHT22;54576;52.020;5.536;2023-06-22T04:45:28;18.30;89.00
67777;DHT22;54576;52.020;5.536;2023-06-22T04:47:53;18.80;86.70
67777;DHT22;54576;52.020;5.536;2023-06-22T04:50:19;19.30;84.60
67777;DHT22;54576;52.020;5.536;2023-06-22T04:52:46;19.50;84.50
67777;DHT22;54576;52.020;5.536;2023-06-22T04:55:12;19.80;84.00
67777;DHT22;54576;52.020;5.536;2023-06-22T04:57:38;20.10;90.40
67777;DHT22;54576;52.020;5.536;2023-06-22T05:00:05;20.10;83.90
67777;DHT22;54576;52.020;5.536;2023-06-22T05:02:57;20.30;84.40
67777;DHT22;54576;52.020;5.536;2023-06-22T05:05:23;20.60;92.90
67777;DHT22;54576;52.020;5.536;2023-06-22T05:07:50;20.70;83.90
67777;DHT22;54576;52.020;5.536;2023-06-22T05:10:19;20.90;83.60
67777;DHT22;54576;52.020;5.536;2023-06-22T05:12:45;21.20;83.60
67777;DHT22;54576;52.020;5.536;2023-06-22T05:15:11;21.50;83.00
67777;DHT22;54576;52.020;5.536;2023-06-22T05:17:37;21.70;82.70
67777;DHT22;54576;52.020;5.536;2023-06-22T05:20:12;22.00;81.60
67777;DHT22;54576;52.020;5.536;2023-06-22T05:22:39;22.20;81.50
67777;DHT22;54576;52.020;5.536;2023-06-22T05:25:08;22.50;82.40
67777;DHT22;54576;52.020;5.536;2023-06-22T05:30:08;23.10;79.00
67777;DHT22;54576;52.020;5.536;2023-06-22T05:32:35;23.30;80.10
67777;DHT22;54576;52.020;5.536;2023-06-22T05:35:03;23.60;79.60
67777;DHT22;54576;52.020;5.536;2023-06-22T05:37:29;23.90;78.50
67777;DHT22;54576;52.020;5.536;2023-06-22T05:42:22;24.60;74.00
67777;DHT22;54576;52.020;5.536;2023-06-22T05:47:14;24.60;99.90
67777;DHT22;54576;52.020;5.536;2023-06-22T05:49:39;23.90;77.20
67777;DHT22;54576;52.020;5.536;2023-06-22T05:52:05;23.50;79.70
67777;DHT22;54576;52.020;5.536;2023-06-22T05:56:57;23.40;81.20
67777;DHT22;54576;52.020;5.536;2023-06-22T05:59:22;23.80;79.30
67777;DHT22;54576;52.020;5.536;2023-06-22T06:01:48;24.10;78.00
67777;DHT22;54576;52.020;5.536;2023-06-22T06:04:17;24.10;76.40
67777;DHT22;54576;52.020;5.536;2023-06-22T06:06:43;24.20;99.90
67777;DHT22;54576;52.020;5.536;2023-06-22T06:09:09;24.50;76.00
67777;DHT22;54576;52.020;5.536;2023-06-22T06:11:37;24.80;74.70
67777;DHT22;54576;52.020;5.536;2023-06-22T06:14:02;24.90;92.40
67777;DHT22;54576;52.020;5.536;2023-06-22T06:23:47;25.30;99.90
67777;DHT22;54576;52.020;5.536;2023-06-22T06:26:12;25.40;91.30
67777;DHT22;54576;52.020;5.536;2023-06-22T06:28:43;25.60;94.70
67777;DHT22;54576;52.020;5.536;2023-06-22T06:31:09;25.20;74.20
67777;DHT22;54576;52.020;5.536;2023-06-22T06:33:35;25.00;88.30
67777;DHT22;54576;52.020;5.536;2023-06-22T06:36:01;24.90;75.10
67777;DHT22;54576;52.020;5.536;2023-06-22T06:43:20;25.50;91.80
67777;DHT22;54576;52.020;5.536;2023-06-22T06:48:12;25.60;99.90
67777;DHT22;54576;52.020;5.536;2023-06-22T06:50:37;25.20;72.50
67777;DHT22;54576;52.020;5.536;2023-06-22T06:53:03;24.90;85.50
67777;DHT22;54576;52.020;5.536;2023-06-22T06:55:28;24.90;99.90
67777;DHT22;54576;52.020;5.536;2023-06-22T06:57:58;24.70;70.80
67777;DHT22;54576;52.020;5.536;2023-06-22T07:00:25;24.60;70.80
67777;DHT22;54576;52.020;5.536;2023-06-22T07:02:51;24.50;71.00
67777;DHT22;54576;52.020;5.536;2023-06-22T07:10:09;24.90;85.20
67777;DHT22;54576;52.020;5.536;2023-06-22T07:12:35;24.80;80.80
67777;DHT22;54576;52.020;5.536;2023-06-22T07:15:05;24.80;90.30
67777;DHT22;54576;52.020;5.536;2023-06-22T07:17:36;24.80;87.60
67777;DHT22;54576;52.020;5.536;2023-06-22T07:20:02;24.70;68.20
67777;DHT22;54576;52.020;5.536;2023-06-22T07:24:59;24.80;67.10
67777;DHT22;54576;52.020;5.536;2023-06-22T07:27:24;24.90;67.60
67777;DHT22;54576;52.020;5.536;2023-06-22T07:29:50;25.20;66.60
67777;DHT22;54576;52.020;5.536;2023-06-22T07:32:16;25.30;65.80
67777;DHT22;54576;52.020;5.536;2023-06-22T07:34:41;25.30;65.70
67777;DHT22;54576;52.020;5.536;2023-06-22T07:37:07;25.20;65.00
67777;DHT22;54576;52.020;5.536;2023-06-22T07:39:33;25.20;64.50
67777;DHT22;54576;52.020;5.536;2023-06-22T07:41:58;25.20;64.50
67777;DHT22;54576;52.020;5.536;2023-06-22T07:44:24;25.20;63.90
67777;DHT22;54576;52.020;5.536;2023-06-22T07:46:49;25.10;63.50
67777;DHT22;54576;52.020;5.536;2023-06-22T07:49:15;25.00;63.20
67777;DHT22;54576;52.020;5.536;2023-06-22T07:51:41;24.90;63.20
67777;DHT22;54576;52.020;5.536;2023-06-22T07:54:08;24.90;62.90
67777;DHT22;54576;52.020;5.536;2023-06-22T07:56:33;25.00;63.00
67777;DHT22;54576;52.020;5.536;2023-06-22T07:58:59;25.10;62.70
67777;DHT22;54576;52.020;5.536;2023-06-22T08:01:26;25.30;62.50
67777;DHT22;54576;52.020;5.536;2023-06-22T08:03:55;25.30;61.90
67777;DHT22;54576;52.020;5.536;2023-06-22T08:06:20;25.10;61.80
67777;DHT22;54576;52.020;5.536;2023-06-22T08:08:46;25.00;62.00
67777;DHT22;54576;52.020;5.536;2023-06-22T08:11:14;25.10;62.10
67777;DHT22;54576;52.020;5.536;2023-06-22T08:13:40;25.10;62.00
67777;DHT22;54576;52.020;5.536;2023-06-22T08:16:05;25.10;61.80
67777;DHT22;54576;52.020;5.536;2023-06-22T08:18:32;25.20;61.60
67777;DHT22;54576;52.020;5.536;2023-06-22T08:20:58;25.30;61.30
67777;DHT22;54576;52.020;5.536;2023-06-22T08:23:24;25.40;60.90
67777;DHT22;54576;52.020;5.536;2023-06-22T08:25:49;25.30;60.80
67777;DHT22;54576;52.020;5.536;2023-06-22T08:28:15;25.30;60.70
67777;DHT22;54576;52.020;5.536;2023-06-22T08:30:41;25.10;60.40
67777;DHT22;54576;52.020;5.536;2023-06-22T08:33:07;25.10;60.60
67777;DHT22;54576;52.020;5.536;2023-06-22T08:35:32;25.00;61.70
67777;DHT22;54576;52.020;5.536;2023-06-22T08:37:58;25.00;60.80
67777;DHT22;54576;52.020;5.536;2023-06-22T08:40:25;25.00;60.60
67777;DHT22;54576;52.020;5.536;2023-06-22T08:42:50;25.10;60.70
67777;DHT22;54576;52.020;5.536;2023-06-22T08:45:16;25.00;61.70
67777;DHT22;54576;52.020;5.536;2023-06-22T08:47:42;25.00;60.90
67777;DHT22;54576;52.020;5.536;2023-06-22T08:50:09;25.10;66.40
67777;DHT22;54576;52.020;5.536;2023-06-22T08:52:35;25.10;93.40
67777;DHT22;54576;52.020;5.536;2023-06-22T08:55:02;25.10;61.20
67777;DHT22;54576;52.020;5.536;2023-06-22T08:57:28;25.30;60.90
67777;DHT22;54576;52.020;5.536;2023-06-22T08:59:54;25.30;60.50
67777;DHT22;54576;52.020;5.536;2023-06-22T09:02:26;25.30;59.90
67777;DHT22;54576;52.020;5.536;2023-06-22T09:04:56;25.40;60.90
67777;DHT22;54576;52.020;5.536;2023-06-22T09:07:22;25.50;59.60
67777;DHT22;54576;52.020;5.536;2023-06-22T09:09:49;25.60;59.40
67777;DHT22;54576;52.020;5.536;2023-06-22T09:12:15;25.70;59.30
67777;DHT22;54576;52.020;5.536;2023-06-22T09:14:41;25.80;58.80
67777;DHT22;54576;52.020;5.536;2023-06-22T09:17:09;25.70;58.80
67777;DHT22;54576;52.020;5.536;2023-06-22T09:19:34;25.70;59.50
67777;DHT22;54576;52.020;5.536;2023-06-22T09:22:00;25.70;58.80
67777;DHT22;54576;52.020;5.536;2023-06-22T09:24:25;25.70;58.40
67777;DHT22;54576;52.020;5.536;2023-06-22T09:26:51;25.70;58.60
67777;DHT22;54576;52.020;5.536;2023-06-22T09:29:17;25.80;58.70
67777;DHT22;54576;52.020;5.536;2023-06-22T09:34:09;25.90;63.90
67777;DHT22;54576;52.020;5.536;2023-06-22T09:36:35;25.90;79.90
67777;DHT22;54576;52.020;5.536;2023-06-22T09:39:01;26.00;67.10
67777;DHT22;54576;52.020;5.536;2023-06-22T09:41:31;25.80;57.80
67777;DHT22;54576;52.020;5.536;2023-06-22T09:43:56;25.70;57.90
67777;DHT22;54576;52.020;5.536;2023-06-22T09:46:22;25.70;57.60
67777;DHT22;54576;52.020;5.536;2023-06-22T09:48:50;25.70;57.90
67777;DHT22;54576;52.020;5.536;2023-06-22T09:51:16;25.70;58.10
67777;DHT22;54576;52.020;5.536;2023-06-22T09:53:47;25.70;58.30
67777;DHT22;54576;52.020;5.536;2023-06-22T09:56:13;25.70;57.70
67777;DHT22;54576;52.020;5.536;2023-06-22T09:58:44;25.70;67.30
67777;DHT22;54576;52.020;5.536;2023-06-22T10:03:37;25.70;66.20
67777;DHT22;54576;52.020;5.536;2023-06-22T10:06:03;25.70;57.50
67777;DHT22;54576;52.020;5.536;2023-06-22T10:08:28;25.70;58.30
67777;DHT22;54576;52.020;5.536;2023-06-22T10:10:54;25.60;57.30
67777;DHT22;54576;52.020;5.536;2023-06-22T10:13:20;25.60;58.20
67777;DHT22;54576;52.020;5.536;2023-06-22T10:15:45;25.50;57.30
67777;DHT22;54576;52.020;5.536;2023-06-22T10:18:15;25.50;57.30
67777;DHT22;54576;52.020;5.536;2023-06-22T10:20:46;25.40;57.30
67777;DHT22;54576;52.020;5.536;2023-06-22T10:23:12;25.40;57.30
67777;DHT22;54576;52.020;5.536;2023-06-22T10:25:38;25.30;56.00
67777;DHT22;54576;52.020;5.536;2023-06-22T10:28:06;25.30;57.80
67777;DHT22;54576;52.020;5.536;2023-06-22T10:30:32;25.50;96.80
67777;DHT22;54576;52.020;5.536;2023-06-22T10:32:58;25.50;98.30
67777;DHT22;54576;52.020;5.536;2023-06-22T10:35:23;25.50;57.40
67777;DHT22;54576;52.020;5.536;2023-06-22T10:37:49;25.50;57.10
67777;DHT22;54576;52.020;5.536;2023-06-22T10:42:44;25.70;56.50
67777;DHT22;54576;52.020;5.536;2023-06-22T10:45:10;25.70;56.90
67777;DHT22;54576;52.020;5.536;2023-06-22T10:47:36;25.70;56.60
67777;DHT22;54576;52.020;5.536;2023-06-22T10:50:02;25.70;56.90
67777;DHT22;54576;52.020;5.536;2023-06-22T10:52:28;25.70;56.90
67777;DHT22;54576;52.020;5.536;2023-06-22T10:54:54;25.80;56.70
67777;DHT22;54576;52.020;5.536;2023-06-22T10:57:28;25.90;55.90
67777;DHT22;54576;52.020;5.536;2023-06-22T10:59:56;25.90;54.40
67777;DHT22;54576;52.020;5.536;2023-06-22T11:04:48;25.80;54.60
67777;DHT22;54576;52.020;5.536;2023-06-22T11:07:14;25.70;55.80
67777;DHT22;54576;52.020;5.536;2023-06-22T11:09:40;25.80;55.70
67777;DHT22;54576;52.020;5.536;2023-06-22T11:12:06;25.70;55.80
67777;DHT22;54576;52.020;5.536;2023-06-22T11:14:32;25.70;55.80
67777;DHT22;54576;52.020;5.536;2023-06-22T11:16:59;25.70;56.10
67777;DHT22;54576;52.020;5.536;2023-06-22T11:19:24;25.70;56.40
67777;DHT22;54576;52.020;5.536;2023-06-22T11:21:50;25.70;56.60
67777;DHT22;54576;52.020;5.536;2023-06-22T11:24:16;25.80;56.50
67777;DHT22;54576;52.020;5.536;2023-06-22T11:26:42;25.80;56.00
67777;DHT22;54576;52.020;5.536;2023-06-22T11:29:08;25.80;56.10
67777;DHT22;54576;52.020;5.536;2023-06-22T11:31:34;25.80;56.10
67777;DHT22;54576;52.020;5.536;2023-06-22T11:34:00;25.70;56.00
67777;DHT22;54576;52.020;5.536;2023-06-22T11:36:26;25.80;56.40
67777;DHT22;54576;52.020;5.536;2023-06-22T11:38:52;25.70;56.00
67777;DHT22;54576;52.020;5.536;2023-06-22T11:43:47;25.60;56.00
67777;DHT22;54576;52.020;5.536;2023-06-22T11:46:12;25.60;99.80
67777;DHT22;54576;52.020;5.536;2023-06-22T11:48:38;25.50;57.70
67777;DHT22;54576;52.020;5.536;2023-06-22T11:51:04;25.40;58.10
67777;DHT22;54576;52.020;5.536;2023-06-22T11:53:31;25.30;58.40
67777;DHT22;54576;52.020;5.536;2023-06-22T11:55:57;25.30;58.80
67777;DHT22;54576;52.020;5.536;2023-06-22T11:58:22;25.30;59.00
67777;DHT22;54576;52.020;5.536;2023-06-22T12:00:48;25.30;59.20
67777;DHT22;54576;52.020;5.536;2023-06-22T12:03:15;25.20;59.00
67777;DHT22;54576;52.020;5.536;2023-06-22T12:05:42;25.10;59.10
67777;DHT22;54576;52.020;5.536;2023-06-22T12:08:07;25.00;59.30
67777;DHT22;54576;52.020;5.536;2023-06-22T12:10:33;24.90;59.50
67777;DHT22;54576;52.020;5.536;2023-06-22T12:12:59;24.90;59.30
67777;DHT22;54576;52.020;5.536;2023-06-22T12:15:26;24.90;59.40
67777;DHT22;54576;52.020;5.536;2023-06-22T12:17:51;24.80;59.70
67777;DHT22;54576;52.020;5.536;2023-06-22T12:20:17;24.70;60.00
67777;DHT22;54576;52.020;5.536;2023-06-22T12:22:43;24.70;59.90
67777;DHT22;54576;52.020;5.536;2023-06-22T12:25:09;24.60;60.30
67777;DHT22;54576;52.020;5.536;2023-06-22T12:27:35;24.60;60.30
67777;DHT22;54576;52.020;5.536;2023-06-22T12:30:01;24.60;60.40
67777;DHT22;54576;52.020;5.536;2023-06-22T12:32:27;24.60;60.90
67777;DHT22;54576;52.020;5.536;2023-06-22T12:34:53;24.60;60.90
67777;DHT22;54576;52.020;5.536;2023-06-22T12:37:19;24.60;60.80
67777;DHT22;54576;52.020;5.536;2023-06-22T12:39:44;24.60;61.00
67777;DHT22;54576;52.020;5.536;2023-06-22T12:42:10;24.50;61.00
67777;DHT22;54576;52.020;5.536;2023-06-22T12:44:42;24.50;61.30
67777;DHT22;54576;52.020;5.536;2023-06-22T12:47:08;24.40;61.20
67777;DHT22;54576;52.020;5.536;2023-06-22T12:49:35;24.30;61.30
67777;DHT22;54576;52.020;5.536;2023-06-22T12:52:01;24.30;61.90
67777;DHT22;54576;52.020;5.536;2023-06-22T12:54:27;24.20;61.90
67777;DHT22;54576;52.020;5.536;2023-06-22T12:56:53;24.20;62.10
67777;DHT22;54576;52.020;5.536;2023-06-22T12:59:19;24.20;62.50
67777;DHT22;54576;52.020;5.536;2023-06-22T13:01:44;24.20;62.60
67777;DHT22;54576;52.020;5.536;2023-06-22T13:04:11;24.10;63.00
67777;DHT22;54576;52.020;5.536;2023-06-22T13:06:40;24.10;63.70
67777;DHT22;54576;52.020;5.536;2023-06-22T13:09:06;24.00;64.00
67777;DHT22;54576;52.020;5.536;2023-06-22T13:11:31;24.00;64.70
67777;DHT22;54576;52.020;5.536;2023-06-22T13:13:57;23.90;65.60
67777;DHT22;54576;52.020;5.536;2023-06-22T13:16:22;23.90;66.00
67777;DHT22;54576;52.020;5.536;2023-06-22T13:18:48;24.00;66.50
67777;DHT22;54576;52.020;5.536;2023-06-22T13:21:13;24.00;66.70
67777;DHT22;54576;52.020;5.536;2023-06-22T13:23:39;24.00;67.30
67777;DHT22;54576;52.020;5.536;2023-06-22T13:26:05;24.00;68.40
67777;DHT22;54576;52.020;5.536;2023-06-22T13:28:30;24.00;69.00
67777;DHT22;54576;52.020;5.536;2023-06-22T13:30:56;24.00;70.60
67777;DHT22;54576;52.020;5.536;2023-06-22T13:33:22;24.00;71.50
67777;DHT22;54576;52.020;5.536;2023-06-22T13:35:47;24.00;72.40
67777;DHT22;54576;52.020;5.536;2023-06-22T13:38:13;24.00;73.30
67777;DHT22;54576;52.020;5.536;2023-06-22T13:40:38;24.10;72.90
67777;DHT22;54576;52.020;5.536;2023-06-22T13:43:04;24.00;73.70
67777;DHT22;54576;52.020;5.536;2023-06-22T13:45:31;24.00;75.10
67777;DHT22;54576;52.020;5.536;2023-06-22T13:47:56;24.00;76.40
67777;DHT22;54576;52.020;5.536;2023-06-22T13:50:22;24.10;79.30
67777;DHT22;54576;52.020;5.536;2023-06-22T13:52:48;24.10;78.30
67777;DHT22;54576;52.020;5.536;2023-06-22T13:55:13;24.00;79.20
67777;DHT22;54576;52.020;5.536;2023-06-22T13:57:40;23.90;77.70
67777;DHT22;54576;52.020;5.536;2023-06-22T14:00:06;23.90;80.90
67777;DHT22;54576;52.020;5.536;2023-06-22T14:02:33;23.70;80.20
67777;DHT22;54576;52.020;5.536;2023-06-22T14:04:59;23.60;81.40
67777;DHT22;54576;52.020;5.536;2023-06-22T14:07:24;23.50;81.20
67777;DHT22;54576;52.020;5.536;2023-06-22T14:09:56;23.60;81.60
67777;DHT22;54576;52.020;5.536;2023-06-22T14:12:23;23.60;82.70
67777;DHT22;54576;52.020;5.536;2023-06-22T14:14:49;23.60;84.40
67777;DHT22;54576;52.020;5.536;2023-06-22T14:17:14;23.60;86.60
67777;DHT22;54576;52.020;5.536;2023-06-22T14:19:40;23.60;87.40
67777;DHT22;54576;52.020;5.536;2023-06-22T14:22:05;23.50;87.00
67777;DHT22;54576;52.020;5.536;2023-06-22T14:24:31;23.40;89.00
67777;DHT22;54576;52.020;5.536;2023-06-22T14:26:56;23.40;88.90
67777;DHT22;54576;52.020;5.536;2023-06-22T14:29:22;23.40;88.50
67777;DHT22;54576;52.020;5.536;2023-06-22T14:31:48;23.50;88.30
67777;DHT22;54576;52.020;5.536;2023-06-22T14:34:15;23.50;87.00
67777;DHT22;54576;52.020;5.536;2023-06-22T14:36:41;23.40;88.60
67777;DHT22;54576;52.020;5.536;2023-06-22T14:39:08;23.40;89.70
67777;DHT22;54576;52.020;5.536;2023-06-22T14:41:33;23.30;90.10
67777;DHT22;54576;52.020;5.536;2023-06-22T14:44:02;23.10;90.80
67777;DHT22;54576;52.020;5.536;2023-06-22T14:46:28;23.00;92.00
67777;DHT22;54576;52.020;5.536;2023-06-22T14:48:53;22.90;91.70
67777;DHT22;54576;52.020;5.536;2023-06-22T14:51:19;22.80;93.10
67777;DHT22;54576;52.020;5.536;2023-06-22T14:53:45;22.90;93.00
67777;DHT22;54576;52.020;5.536;2023-06-22T14:56:14;22.90;93.00
67777;DHT22;54576;52.020;5.536;2023-06-22T14:58:41;22.90;93.10
67777;DHT22;54576;52.020;5.536;2023-06-22T15:01:08;22.90;93.50
67777;DHT22;54576;52.020;5.536;2023-06-22T15:03:34;22.90;93.00
67777;DHT22;54576;52.020;5.536;2023-06-22T15:06:02;22.90;93.60
67777;DHT22;54576;52.020;5.536;2023-06-22T15:08:28;22.90;93.30
67777;DHT22;54576;52.020;5.536;2023-06-22T15:10:53;22.80;93.50
67777;DHT22;54576;52.020;5.536;2023-06-22T15:13:19;22.80;94.30
67777;DHT22;54576;52.020;5.536;2023-06-22T15:15:48;22.70;94.70
67777;DHT22;54576;52.020;5.536;2023-06-22T15:18:15;22.60;95.30
67777;DHT22;54576;52.020;5.536;2023-06-22T15:20:41;22.60;96.40
67777;DHT22;54576;52.020;5.536;2023-06-22T15:23:09;22.60;97.00
67777;DHT22;54576;52.020;5.536;2023-06-22T15:25:35;22.60;97.50
67777;DHT22;54576;52.020;5.536;2023-06-22T15:28:01;22.60;97.10
67777;DHT22;54576;52.020;5.536;2023-06-22T15:30:26;22.40;97.60
67777;DHT22;54576;52.020;5.536;2023-06-22T15:32:52;22.40;98.30
67777;DHT22;54576;52.020;5.536;2023-06-22T15:35:18;22.40;99.00
67777;DHT22;54576;52.020;5.536;2023-06-22T15:37:44;22.30;99.70
67777;DHT22;54576;52.020;5.536;2023-06-22T15:40:10;22.30;99.70
67777;DHT22;54576;52.020;5.536;2023-06-22T15:42:36;22.20;99.90
67777;DHT22;54576;52.020;5.536;2023-06-22T15:45:02;22.10;99.30
67777;DHT22;54576;52.020;5.536;2023-06-22T15:47:27;22.00;98.00
67777;DHT22;54576;52.020;5.536;2023-06-22T15:49:53;21.90;98.50
67777;DHT22;54576;52.020;5.536;2023-06-22T15:52:21;21.70;96.50
67777;DHT22;54576;52.020;5.536;2023-06-22T15:54:47;21.60;97.60
67777;DHT22;54576;52.020;5.536;2023-06-22T15:57:13;21.50;96.30
67777;DHT22;54576;52.020;5.536;2023-06-22T15:59:40;21.30;97.30
67777;DHT22;54576;52.020;5.536;2023-06-22T16:02:06;21.20;98.40
67777;DHT22;54576;52.020;5.536;2023-06-22T16:04:35;21.00;97.90
67777;DHT22;54576;52.020;5.536;2023-06-22T16:07:00;20.90;98.80
67777;DHT22;54576;52.020;5.536;2023-06-22T16:09:26;20.90;98.50
67777;DHT22;54576;52.020;5.536;2023-06-22T16:11:52;20.80;98.60
67777;DHT22;54576;52.020;5.536;2023-06-22T16:14:18;20.80;99.00
67777;DHT22;54576;52.020;5.536;2023-06-22T16:16:43;20.80;99.60